Terminal Aerodrome Forecast
Issued by NWS

Home | Current Version | Previous Version | Text Only | Print | Product List | Glossary On
Versions: 1 2 3 4 5 6 7 8 9 10 11 12 13 14 15 16 17 18 19 20 21 22 23 24 25 26 27 28 29 30 31
000
FTUS44 KTSA 260800 AAA
TAFBVO
TAF AMD
KBVO 260828Z 2608/2706 00000KT P6SM FEW045 SCT110
      TEMPO 2610/2613 2SM BR SCT003
     FM261400 21005KT P6SM SCT250
     FM261800 20011KT P6SM SCT100 PROB30 2700/2706 -TSRA BKN050CB=

USA.gov is the U.S. government's official web portal to all federal, state and local government web resources and services.